Time;durP1;ratioP1;P1;durP2;ratioP2;P2;SDS_P1;SDS_P2;PMS_P1;PMS_P2;Temp;Humidity;BMP_temperature;BMP_pressure;BME280_temperature;BME280_humidity;BME280_pressure;Samples;Min_cycle;Max_cycle;Signal;HPM_P1;HPM_P2
2023/12/23 00:01:30;;;;;;;0.30;0.30;;;1.10;99.90;;;;;;5037666;28;20594;-87
2023/12/23 00:03:55;;;;;;;0.47;0.47;;;1.00;99.90;;;;;;5040512;28;20250;-87
2023/12/23 00:06:21;;;;;;;0.40;0.40;;;1.10;99.90;;;;;;5013396;28;20215;-88
2023/12/23 00:08:46;;;;;;;0.40;0.40;;;1.10;99.90;;;;;;5048718;28;20552;-87
2023/12/23 00:11:12;;;;;;;0.50;0.50;;;1.00;99.90;;;;;;5035119;28;20195;-87
2023/12/23 00:13:37;;;;;;;0.40;0.40;;;1.10;99.90;;;;;;5035962;28;20187;-87
2023/12/23 00:16:03;;;;;;;0.40;0.40;;;1.00;99.90;;;;;;5035265;28;20166;-87
2023/12/23 00:18:29;;;;;;;0.43;0.43;;;1.10;99.90;;;;;;5036437;28;20278;-87
2023/12/23 00:20:54;;;;;;;0.40;0.40;;;1.10;99.90;;;;;;5016592;28;20770;-87
2023/12/23 00:23:20;;;;;;;0.40;0.40;;;1.10;99.90;;;;;;5035255;28;20227;-87
2023/12/23 00:25:45;;;;;;;0.50;0.50;;;1.10;99.90;;;;;;5025236;28;20179;-87
2023/12/23 00:28:11;;;;;;;0.30;0.30;;;1.10;99.90;;;;;;5021867;28;20188;-88
2023/12/23 00:30:36;;;;;;;0.40;0.40;;;1.10;99.90;;;;;;5056177;28;20296;-87
2023/12/23 00:33:05;;;;;;;0.33;0.33;;;1.00;99.90;;;;;;5055706;28;20240;-86
2023/12/23 00:35:30;;;;;;;0.37;0.37;;;1.00;99.90;;;;;;5056032;28;20241;-87
2023/12/23 00:37:56;;;;;;;0.40;0.40;;;1.10;99.90;;;;;;5022586;28;20438;-87
2023/12/23 00:40:21;;;;;;;0.50;0.50;;;1.10;99.90;;;;;;5029185;28;20651;-87
2023/12/23 00:42:47;;;;;;;0.30;0.30;;;1.10;99.90;;;;;;5032305;28;20253;-88
2023/12/23 00:45:12;;;;;;;0.40;0.40;;;1.10;99.90;;;;;;4995494;28;20188;-86
2023/12/23 00:47:38;;;;;;;0.40;0.40;;;1.10;99.90;;;;;;5013018;28;20199;-86
2023/12/23 00:50:04;;;;;;;0.40;0.40;;;1.10;99.90;;;;;;5013507;28;20180;-87
2023/12/23 00:52:31;;;;;;;0.50;0.50;;;1.10;99.90;;;;;;5016518;28;20629;-87
2023/12/23 00:54:56;;;;;;;0.30;0.30;;;1.10;99.90;;;;;;5025116;28;20932;-87
2023/12/23 00:57:22;;;;;;;0.40;0.40;;;1.20;99.90;;;;;;5025260;28;20428;-87
2023/12/23 00:59:47;;;;;;;0.40;0.40;;;1.20;99.90;;;;;;5020427;28;20202;-86
2023/12/23 01:02:14;;;;;;;0.40;0.40;;;1.20;99.90;;;;;;4996854;28;20764;-87
2023/12/23 01:04:40;;;;;;;0.40;0.40;;;1.20;99.90;;;;;;5013234;28;20560;-87
2023/12/23 01:07:05;;;;;;;0.40;0.40;;;1.20;99.90;;;;;;5019322;28;20406;-87
2023/12/23 01:09:31;;;;;;;0.30;0.30;;;1.20;99.90;;;;;;5015652;28;20159;-87
2023/12/23 01:11:56;;;;;;;0.33;0.33;;;1.30;99.90;;;;;;5016529;28;20802;-87
2023/12/23 01:14:22;;;;;;;0.50;0.50;;;1.30;99.90;;;;;;5017795;28;20180;-86
2023/12/23 01:16:48;;;;;;;0.40;0.40;;;1.30;99.90;;;;;;5013465;28;20200;-87
2023/12/23 01:19:13;;;;;;;0.50;0.50;;;1.30;99.90;;;;;;5029571;28;20175;-87
2023/12/23 01:21:39;;;;;;;0.40;0.40;;;1.40;99.90;;;;;;5029517;28;20236;-87
2023/12/23 01:24:04;;;;;;;0.40;0.40;;;1.40;99.90;;;;;;5020967;28;20278;-87
2023/12/23 01:26:30;;;;;;;0.40;0.40;;;1.40;99.90;;;;;;5024431;28;20261;-87
2023/12/23 01:29:00;;;;;;;0.40;0.40;;;1.40;99.90;;;;;;5030434;28;20198;-88
2023/12/23 01:31:28;;;;;;;0.50;0.50;;;1.40;99.90;;;;;;5032167;28;20729;-87
2023/12/23 01:33:54;;;;;;;0.40;0.40;;;1.40;99.90;;;;;;5031181;28;20423;-87
2023/12/23 01:36:20;;;;;;;0.40;0.40;;;1.50;99.90;;;;;;5032482;28;20951;-87
2023/12/23 01:38:45;;;;;;;0.50;0.50;;;1.50;99.90;;;;;;5031605;28;20695;-87
2023/12/23 01:41:11;;;;;;;0.40;0.40;;;1.50;99.90;;;;;;5031567;28;20191;-87
2023/12/23 01:43:36;;;;;;;0.43;0.43;;;1.50;99.90;;;;;;5027705;28;20263;-88
2023/12/23 01:46:02;;;;;;;0.47;0.47;;;1.60;99.90;;;;;;5002888;28;20193;-87
2023/12/23 01:48:34;;;;;;;0.50;0.50;;;1.60;99.90;;;;;;5000599;28;20643;-87
2023/12/23 01:50:59;;;;;;;0.50;0.50;;;1.70;99.90;;;;;;5031818;28;20885;-88
2023/12/23 01:53:26;;;;;;;0.50;0.50;;;1.70;99.90;;;;;;5029035;28;20460;-86
2023/12/23 01:55:52;;;;;;;0.40;0.40;;;1.70;99.90;;;;;;5031282;28;20624;-87
2023/12/23 01:58:19;;;;;;;0.47;0.47;;;1.70;99.90;;;;;;5028267;28;20448;-87
2023/12/23 02:00:45;;;;;;;0.50;0.50;;;1.60;99.90;;;;;;5023018;28;20427;-87
2023/12/23 02:03:10;;;;;;;0.50;0.50;;;1.60;99.90;;;;;;4997927;28;20533;-87
2023/12/23 02:05:36;;;;;;;0.30;0.30;;;1.60;99.90;;;;;;5012351;28;20403;-87
2023/12/23 02:08:01;;;;;;;0.40;0.40;;;1.60;99.90;;;;;;5022475;28;20682;-87
2023/12/23 02:10:27;;;;;;;0.40;0.40;;;1.60;99.90;;;;;;5031778;28;20242;-86
2023/12/23 02:13:12;;;;;;;0.50;0.50;;;1.60;99.90;;;;;;5008122;28;20286;-87
2023/12/23 02:15:40;;;;;;;0.50;0.50;;;1.60;99.90;;;;;;5021804;28;20188;-88
2023/12/23 02:18:06;;;;;;;0.40;0.40;;;1.60;99.90;;;;;;5025315;28;20493;-88
2023/12/23 02:20:31;;;;;;;0.40;0.40;;;1.60;99.90;;;;;;5030097;28;20494;-88
2023/12/23 02:22:57;;;;;;;0.40;0.40;;;1.60;99.90;;;;;;5028943;28;21064;-87
2023/12/23 02:25:22;;;;;;;0.20;0.20;;;1.70;99.90;;;;;;4999755;28;20238;-87
2023/12/23 02:27:53;;;;;;;0.30;0.30;;;1.60;99.90;;;;;;5031783;28;20191;-87
2023/12/23 02:30:20;;;;;;;0.50;0.50;;;1.60;99.90;;;;;;5030995;28;20176;-88
2023/12/23 02:32:46;;;;;;;0.30;0.30;;;1.70;99.90;;;;;;5031045;28;20995;-88
2023/12/23 02:35:12;;;;;;;0.50;0.50;;;1.70;99.90;;;;;;5027551;28;20457;-88
2023/12/23 02:37:38;;;;;;;0.40;0.40;;;1.70;99.90;;;;;;5027518;28;20450;-87
2023/12/23 02:40:04;;;;;;;0.47;0.47;;;1.70;99.90;;;;;;5030875;28;20945;-87
2023/12/23 02:42:29;;;;;;;0.40;0.40;;;1.70;99.90;;;;;;5027289;28;20473;-87
2023/12/23 02:44:55;;;;;;;0.40;0.40;;;1.70;99.90;;;;;;5013730;28;20440;-87
2023/12/23 02:47:20;;;;;;;0.30;0.30;;;1.70;99.90;;;;;;5016143;28;20193;-87
2023/12/23 02:49:46;;;;;;;0.50;0.50;;;1.70;99.90;;;;;;5025011;28;20551;-87
2023/12/23 02:52:11;;;;;;;0.40;0.40;;;1.70;99.90;;;;;;5017427;28;20212;-86
2023/12/23 02:54:37;;;;;;;0.50;0.50;;;1.80;99.90;;;;;;5025511;28;20563;-87
2023/12/23 02:57:03;;;;;;;0.40;0.40;;;1.70;99.90;;;;;;5027855;28;20033;-87
2023/12/23 02:59:28;;;;;;;0.50;0.50;;;1.70;99.90;;;;;;5030092;28;20536;-86
2023/12/23 03:01:54;;;;;;;0.40;0.40;;;1.70;99.90;;;;;;5025860;28;20191;-87
2023/12/23 03:04:19;;;;;;;0.40;0.40;;;1.70;99.90;;;;;;5029925;28;20222;-87
2023/12/23 03:06:45;;;;;;;0.50;0.50;;;1.70;99.90;;;;;;5030247;28;20226;-88
2023/12/23 03:09:10;;;;;;;0.50;0.50;;;1.70;99.90;;;;;;5028254;28;20203;-87
2023/12/23 03:11:39;;;;;;;0.30;0.30;;;1.70;99.90;;;;;;5026510;28;20834;-87
2023/12/23 03:14:05;;;;;;;0.50;0.50;;;1.80;99.90;;;;;;5024276;28;20518;-87
2023/12/23 03:16:34;;;;;;;0.50;0.50;;;1.80;99.90;;;;;;5022022;28;20442;-87
2023/12/23 03:19:05;;;;;;;0.30;0.30;;;1.80;99.90;;;;;;5027420;28;20449;-86
2023/12/23 03:21:31;;;;;;;0.40;0.40;;;1.80;99.90;;;;;;5024267;28;20971;-87
2023/12/23 03:23:57;;;;;;;0.47;0.47;;;1.80;99.90;;;;;;5019954;28;20565;-86
2023/12/23 03:26:22;;;;;;;0.40;0.40;;;1.90;99.90;;;;;;5029339;28;20183;-87
2023/12/23 03:28:48;;;;;;;0.30;0.30;;;1.90;99.90;;;;;;5023676;28;20196;-86
2023/12/23 03:31:13;;;;;;;0.50;0.50;;;2.00;99.90;;;;;;5027032;28;20194;-87
2023/12/23 03:33:42;;;;;;;0.50;0.50;;;2.00;99.90;;;;;;5028535;28;20187;-87
2023/12/23 03:36:07;;;;;;;0.40;0.40;;;2.00;99.90;;;;;;5028790;28;20180;-87
2023/12/23 03:38:33;;;;;;;0.43;0.43;;;2.00;99.90;;;;;;5029560;28;20813;-87
2023/12/23 03:40:59;;;;;;;0.37;0.37;;;2.10;99.90;;;;;;5025262;28;20301;-87
2023/12/23 03:43:24;;;;;;;0.37;0.37;;;2.20;99.90;;;;;;5025899;28;20272;-88
2023/12/23 03:45:50;;;;;;;0.33;0.33;;;2.20;99.90;;;;;;4997980;28;20136;-87
2023/12/23 03:48:16;;;;;;;0.30;0.30;;;2.20;99.90;;;;;;5027449;28;20195;-87
2023/12/23 03:50:41;;;;;;;0.40;0.40;;;2.10;99.90;;;;;;5028502;28;20202;-87
2023/12/23 03:53:07;;;;;;;0.30;0.30;;;2.10;99.90;;;;;;5009350;28;20996;-87
2023/12/23 03:55:32;;;;;;;0.40;0.40;;;2.30;99.90;;;;;;5025952;28;20192;-87
2023/12/23 03:57:59;;;;;;;0.30;0.30;;;2.30;99.90;;;;;;5026667;28;20268;-88
2023/12/23 04:00:25;;;;;;;0.40;0.40;;;2.30;99.90;;;;;;5025878;28;20745;-86
2023/12/23 04:02:51;;;;;;;0.30;0.30;;;2.30;99.90;;;;;;5026324;28;20484;-88
2023/12/23 04:05:16;;;;;;;0.40;0.40;;;2.30;99.90;;;;;;5025025;28;20454;-86
2023/12/23 04:07:42;;;;;;;0.40;0.40;;;2.30;99.90;;;;;;5025404;28;20180;-87
2023/12/23 04:10:08;;;;;;;0.40;0.40;;;2.30;99.90;;;;;;5026576;28;20242;-87
2023/12/23 04:12:33;;;;;;;0.30;0.30;;;2.30;99.90;;;;;;5023831;28;20184;-87
2023/12/23 04:14:59;;;;;;;0.50;0.50;;;2.40;99.90;;;;;;5023668;28;20194;-86
2023/12/23 04:17:24;;;;;;;0.30;0.30;;;2.30;99.90;;;;;;5027243;28;20191;-87
2023/12/23 04:19:50;;;;;;;0.40;0.40;;;2.30;99.90;;;;;;5028569;28;20227;-87
2023/12/23 04:22:16;;;;;;;0.40;0.40;;;2.30;99.90;;;;;;5030605;28;20206;-88
2023/12/23 04:24:41;;;;;;;0.47;0.47;;;2.30;99.90;;;;;;5032122;28;20188;-88
2023/12/23 04:27:08;;;;;;;0.50;0.50;;;2.30;99.90;;;;;;5029537;28;20265;-87
2023/12/23 04:29:33;;;;;;;0.40;0.40;;;2.30;99.90;;;;;;5031635;28;20251;-86
2023/12/23 04:31:59;;;;;;;0.40;0.40;;;2.30;99.90;;;;;;5034830;28;20450;-88
2023/12/23 04:34:24;;;;;;;0.50;0.50;;;2.30;99.90;;;;;;5030028;28;20187;-87
2023/12/23 04:36:50;;;;;;;0.30;0.30;;;2.30;99.90;;;;;;5031716;28;20191;-88
2023/12/23 04:39:15;;;;;;;0.40;0.40;;;2.30;99.90;;;;;;5035271;28;20183;-87
2023/12/23 04:41:46;;;;;;;0.40;0.40;;;2.30;99.90;;;;;;5037335;28;20204;-88
2023/12/23 04:44:13;;;;;;;0.40;0.40;;;2.30;99.90;;;;;;5012031;28;20583;-86
2023/12/23 04:46:39;;;;;;;0.30;0.30;;;2.30;99.90;;;;;;5029006;28;20473;-88
2023/12/23 04:49:05;;;;;;;0.40;0.40;;;2.30;99.90;;;;;;5029453;28;20504;-87
2023/12/23 04:51:30;;;;;;;0.40;0.40;;;2.30;99.90;;;;;;5030874;28;20450;-87
2023/12/23 04:53:56;;;;;;;0.40;0.40;;;2.30;99.90;;;;;;5030689;28;20199;-88
2023/12/23 04:56:22;;;;;;;0.30;0.30;;;2.30;99.90;;;;;;5027954;28;20214;-87
2023/12/23 04:58:48;;;;;;;0.50;0.50;;;2.30;99.90;;;;;;5001392;28;20679;-88
2023/12/23 05:01:13;;;;;;;0.30;0.30;;;2.30;99.90;;;;;;5023843;28;20434;-88
2023/12/23 05:03:40;;;;;;;0.30;0.30;;;2.30;99.90;;;;;;5015056;28;20754;-88
2023/12/23 05:06:06;;;;;;;0.40;0.40;;;2.30;99.90;;;;;;5030580;28;20191;-88
2023/12/23 05:08:32;;;;;;;0.40;0.40;;;2.30;99.90;;;;;;5030550;28;20490;-88
2023/12/23 05:10:58;;;;;;;0.40;0.40;;;2.30;99.90;;;;;;5029590;28;20446;-87
2023/12/23 05:13:24;;;;;;;0.30;0.30;;;2.30;99.90;;;;;;5012510;28;20442;-87
2023/12/23 05:15:49;;;;;;;0.23;0.23;;;2.30;99.90;;;;;;5023264;28;20446;-87
2023/12/23 05:18:15;;;;;;;0.40;0.40;;;2.30;99.90;;;;;;5028953;28;20241;-87
2023/12/23 05:20:40;;;;;;;0.50;0.50;;;2.30;99.90;;;;;;5008599;28;20235;-88
2023/12/23 05:23:06;;;;;;;0.40;0.40;;;2.30;99.90;;;;;;5030977;28;20285;-88
2023/12/23 05:25:32;;;;;;;0.40;0.40;;;2.30;99.90;;;;;;5026495;28;20174;-88
2023/12/23 05:27:57;;;;;;;0.40;0.40;;;2.20;99.90;;;;;;5025990;28;20198;-88
2023/12/23 05:30:23;;;;;;;0.40;0.40;;;2.20;99.90;;;;;;5023413;28;20191;-87
2023/12/23 05:32:48;;;;;;;0.40;0.40;;;2.10;99.90;;;;;;5024506;28;20179;-87
2023/12/23 05:35:14;;;;;;;0.40;0.40;;;2.10;99.90;;;;;;5004130;28;20161;-87
2023/12/23 05:37:39;;;;;;;0.50;0.50;;;2.00;99.90;;;;;;5023194;28;20192;-88
2023/12/23 05:40:06;;;;;;;0.30;0.30;;;1.90;99.90;;;;;;5031082;28;20190;-86
2023/12/23 05:42:31;;;;;;;0.40;0.40;;;1.90;99.90;;;;;;5030899;28;20568;-87
2023/12/23 05:44:57;;;;;;;0.50;0.50;;;1.80;99.90;;;;;;5024516;28;20562;-87
2023/12/23 05:47:23;;;;;;;0.40;0.40;;;1.80;99.90;;;;;;5027068;28;20203;-87
2023/12/23 05:49:48;;;;;;;0.50;0.50;;;1.80;99.90;;;;;;5021298;28;20177;-87
2023/12/23 05:52:14;;;;;;;0.40;0.40;;;1.70;99.90;;;;;;5031716;28;20274;-88
2023/12/23 05:54:39;;;;;;;0.40;0.40;;;1.70;99.90;;;;;;5029100;28;20636;-87
2023/12/23 05:57:05;;;;;;;0.30;0.30;;;1.60;99.90;;;;;;5031544;28;20209;-87
2023/12/23 05:59:32;;;;;;;0.50;0.50;;;1.60;99.90;;;;;;5026824;28;20640;-87
2023/12/23 06:01:57;;;;;;;0.40;0.40;;;1.60;99.90;;;;;;5001881;28;20207;-87
2023/12/23 06:04:23;;;;;;;0.40;0.40;;;1.60;99.90;;;;;;5031476;28;20818;-87
2023/12/23 06:06:49;;;;;;;0.40;0.40;;;1.60;99.90;;;;;;5028542;28;20176;-87
2023/12/23 06:09:14;;;;;;;0.30;0.30;;;1.60;99.90;;;;;;5021548;28;20729;-87
2023/12/23 06:11:40;;;;;;;0.40;0.40;;;1.60;99.90;;;;;;5007892;28;20180;-87
2023/12/23 06:14:05;;;;;;;0.50;0.50;;;1.60;99.90;;;;;;5027593;28;20217;-88
2023/12/23 06:16:31;;;;;;;0.50;0.50;;;1.60;99.90;;;;;;5008309;28;20230;-87
2023/12/23 06:18:57;;;;;;;0.37;0.37;;;1.60;99.90;;;;;;5035781;28;20222;-87
2023/12/23 06:21:22;;;;;;;0.30;0.30;;;1.70;99.90;;;;;;5035335;28;20224;-88
2023/12/23 06:23:47;;;;;;;0.40;0.40;;;1.70;99.90;;;;;;5012765;28;20258;-87
2023/12/23 06:26:13;;;;;;;0.50;0.50;;;1.70;99.90;;;;;;5029668;28;20206;-88
2023/12/23 06:28:39;;;;;;;0.37;0.37;;;1.70;99.90;;;;;;5021358;28;20847;-88
2023/12/23 06:31:04;;;;;;;0.50;0.50;;;1.60;99.90;;;;;;5026750;28;20222;-88
2023/12/23 06:33:30;;;;;;;0.50;0.50;;;1.60;99.90;;;;;;5019000;28;20564;-87
2023/12/23 06:35:56;;;;;;;0.30;0.30;;;1.60;99.90;;;;;;5008535;28;20683;-87
2023/12/23 06:38:21;;;;;;;0.30;0.30;;;1.60;99.90;;;;;;5033085;28;20186;-87
2023/12/23 06:40:47;;;;;;;0.33;0.33;;;1.70;99.90;;;;;;5038161;28;20180;-86
2023/12/23 06:43:12;;;;;;;0.40;0.40;;;1.70;99.90;;;;;;5042605;28;20225;-87
2023/12/23 06:45:38;;;;;;;0.40;0.40;;;1.70;99.90;;;;;;5022541;28;20198;-87
2023/12/23 06:48:04;;;;;;;0.50;0.50;;;1.60;99.90;;;;;;5029472;28;20206;-87
2023/12/23 06:50:29;;;;;;;0.30;0.30;;;1.60;99.90;;;;;;5022970;28;20691;-88
2023/12/23 06:52:55;;;;;;;0.40;0.40;;;1.60;99.90;;;;;;5025499;28;20460;-87
2023/12/23 06:55:20;;;;;;;0.40;0.40;;;1.60;99.90;;;;;;5042993;28;20178;-87
2023/12/23 06:57:46;;;;;;;0.40;0.40;;;1.70;99.90;;;;;;5034232;28;20180;-87
2023/12/23 07:00:12;;;;;;;0.40;0.40;;;1.70;99.90;;;;;;5029208;28;20162;-86
2023/12/23 07:02:39;;;;;;;0.40;0.40;;;1.70;99.90;;;;;;5012631;28;20261;-87
2023/12/23 07:05:05;;;;;;;0.40;0.40;;;1.70;99.90;;;;;;5030338;28;20434;-88
2023/12/23 07:07:30;;;;;;;0.30;0.30;;;1.70;99.90;;;;;;5016867;28;20431;-87
2023/12/23 07:09:58;;;;;;;0.30;0.30;;;1.70;99.90;;;;;;5039197;28;20508;-87
2023/12/23 07:12:23;;;;;;;0.30;0.30;;;1.70;99.90;;;;;;5034402;28;20654;-88
2023/12/23 07:14:49;;;;;;;0.50;0.50;;;1.70;99.90;;;;;;5024799;28;20466;-88
2023/12/23 07:17:14;;;;;;;0.50;0.50;;;1.70;99.90;;;;;;5044347;28;20161;-88
2023/12/23 07:19:40;;;;;;;0.30;0.30;;;1.70;99.90;;;;;;5024766;28;20271;-88
2023/12/23 07:22:05;;;;;;;0.37;0.37;;;1.70;99.90;;;;;;5028317;28;20597;-88
2023/12/23 07:24:31;;;;;;;0.40;0.40;;;1.70;99.90;;;;;;5014252;28;20210;-88
2023/12/23 07:26:57;;;;;;;0.30;0.30;;;1.80;99.90;;;;;;5022654;28;20187;-87
2023/12/23 07:29:22;;;;;;;0.30;0.30;;;1.80;99.90;;;;;;5026616;28;20655;-88
2023/12/23 07:31:48;;;;;;;0.50;0.50;;;1.80;99.90;;;;;;5029002;28;20279;-88
2023/12/23 07:34:13;;;;;;;0.33;0.33;;;1.80;99.90;;;;;;5024469;28;20644;-91
2023/12/23 07:36:39;;;;;;;0.30;0.30;;;2.00;99.90;;;;;;5025639;28;20187;-89
2023/12/23 07:39:05;;;;;;;0.30;0.30;;;2.00;99.90;;;;;;5028852;28;20188;-89
2023/12/23 07:41:30;;;;;;;0.40;0.40;;;2.00;99.90;;;;;;5026873;28;20179;-90
2023/12/23 07:43:56;;;;;;;0.50;0.50;;;1.90;99.90;;;;;;5030191;28;20481;-90
2023/12/23 07:46:22;;;;;;;0.40;0.40;;;1.90;99.90;;;;;;5017630;28;20271;-90
2023/12/23 07:48:47;;;;;;;0.37;0.37;;;1.90;99.90;;;;;;5009189;28;20196;-89
2023/12/23 07:51:14;;;;;;;0.30;0.30;;;1.90;99.90;;;;;;5009740;28;20176;-90
2023/12/23 07:53:40;;;;;;;0.40;0.40;;;1.90;99.90;;;;;;5004080;28;20656;-89
2023/12/23 07:56:07;;;;;;;0.20;0.20;;;1.90;99.90;;;;;;5042982;28;20459;-87
2023/12/23 07:58:33;;;;;;;0.33;0.33;;;1.90;99.90;;;;;;5022417;28;20242;-87
2023/12/23 08:00:58;;;;;;;0.40;0.40;;;2.00;99.90;;;;;;5031611;28;20478;-88
2023/12/23 08:03:24;;;;;;;0.40;0.40;;;2.00;99.90;;;;;;5023139;28;20999;-88
2023/12/23 08:05:49;;;;;;;0.40;0.40;;;2.00;99.90;;;;;;5011010;28;20994;-87
2023/12/23 08:08:15;;;;;;;0.40;0.40;;;2.00;99.90;;;;;;5035326;28;20794;-87
2023/12/23 08:10:40;;;;;;;0.50;0.50;;;2.00;99.90;;;;;;5034302;28;20192;-88
2023/12/23 08:13:06;;;;;;;0.30;0.30;;;2.00;99.90;;;;;;5044506;28;20228;-87
2023/12/23 08:15:32;;;;;;;;;;;2.00;99.90;;;;;;5032597;28;20542;-87
2023/12/23 08:17:58;;;;;;;0.40;0.40;;;2.10;99.90;;;;;;5024263;28;19920;-87
2023/12/23 08:20:24;;;;;;;0.50;0.50;;;2.10;99.90;;;;;;5037540;28;20240;-88
2023/12/23 08:22:50;;;;;;;0.33;0.33;;;2.10;99.90;;;;;;5025672;28;20477;-88
2023/12/23 08:25:15;;;;;;;0.30;0.30;;;2.10;99.90;;;;;;5026064;28;20191;-87
2023/12/23 08:27:41;;;;;;;0.40;0.40;;;2.10;99.90;;;;;;5033102;28;20156;-87
2023/12/23 08:30:07;;;;;;;0.40;0.40;;;2.20;99.90;;;;;;5011880;28;20329;-88
2023/12/23 08:32:33;;;;;;;0.40;0.40;;;2.20;99.90;;;;;;5033531;28;20204;-89
2023/12/23 08:34:59;;;;;;;0.30;0.30;;;2.20;99.90;;;;;;5029522;28;20454;-89
2023/12/23 08:37:24;;;;;;;0.33;0.33;;;2.20;99.90;;;;;;5027399;28;20190;-88
2023/12/23 08:39:50;;;;;;;0.40;0.40;;;2.20;99.90;;;;;;4998323;28;20435;-88
2023/12/23 08:42:16;;;;;;;0.40;0.40;;;2.20;99.90;;;;;;5016443;28;20586;-89
2023/12/23 08:44:42;;;;;;;0.33;0.33;;;2.30;99.90;;;;;;5007572;28;20192;-89
2023/12/23 08:47:07;;;;;;;0.30;0.30;;;2.30;99.90;;;;;;4999142;28;20279;-89
2023/12/23 08:49:33;;;;;;;0.40;0.40;;;2.30;99.90;;;;;;5030233;28;20192;-88
2023/12/23 08:51:58;;;;;;;0.40;0.40;;;2.40;99.90;;;;;;5022028;28;20183;-88
2023/12/23 08:54:24;;;;;;;0.30;0.30;;;2.40;99.90;;;;;;5017805;28;20190;-89
2023/12/23 08:56:49;;;;;;;0.30;0.30;;;2.40;99.90;;;;;;5036213;28;20189;-88
2023/12/23 08:59:16;;;;;;;0.50;0.50;;;2.40;99.90;;;;;;5030883;28;20268;-89
2023/12/23 09:01:43;;;;;;;0.43;0.43;;;2.40;99.90;;;;;;5014815;28;20184;-88
2023/12/23 09:04:09;;;;;;;0.40;0.40;;;2.40;99.90;;;;;;5023397;28;20482;-88
2023/12/23 09:06:34;;;;;;;0.40;0.40;;;2.50;99.90;;;;;;5018181;28;20429;-88
2023/12/23 09:09:01;;;;;;;0.40;0.40;;;2.40;99.90;;;;;;4998737;28;20250;-88
2023/12/23 09:11:27;;;;;;;0.40;0.40;;;2.50;99.90;;;;;;5018615;28;20180;-88
2023/12/23 09:13:52;;;;;;;0.40;0.40;;;2.50;99.90;;;;;;5026819;28;20422;-88
2023/12/23 09:16:18;;;;;;;0.40;0.40;;;2.50;99.90;;;;;;5023707;28;20656;-88
2023/12/23 09:18:43;;;;;;;0.40;0.40;;;2.60;99.90;;;;;;5016565;28;20176;-89
2023/12/23 09:21:09;;;;;;;0.30;0.30;;;2.60;99.90;;;;;;5011637;28;20232;-88
2023/12/23 09:23:34;;;;;;;0.30;0.30;;;2.70;99.90;;;;;;5014436;28;20295;-89
2023/12/23 09:26:00;;;;;;;0.40;0.40;;;2.70;99.90;;;;;;5016405;28;20231;-88
2023/12/23 09:28:25;;;;;;;0.40;0.40;;;2.70;99.90;;;;;;5020206;28;20238;-89
2023/12/23 09:30:51;;;;;;;0.37;0.37;;;2.70;99.90;;;;;;5018568;28;20200;-89
2023/12/23 09:33:17;;;;;;;0.30;0.30;;;2.70;99.90;;;;;;5032155;28;20175;-88
2023/12/23 09:35:42;;;;;;;0.30;0.30;;;2.80;99.90;;;;;;5021301;28;21074;-88
2023/12/23 09:38:09;;;;;;;0.40;0.40;;;2.80;99.90;;;;;;5013483;28;21013;-88
2023/12/23 09:40:36;;;;;;;0.30;0.30;;;2.80;99.90;;;;;;5012700;28;20618;-88
2023/12/23 09:43:02;;;;;;;0.30;0.30;;;2.80;99.90;;;;;;5024830;28;20528;-88
2023/12/23 09:45:30;;;;;;;0.30;0.30;;;2.80;99.90;;;;;;5026201;28;20521;-88
2023/12/23 09:47:55;;;;;;;0.30;0.30;;;2.80;99.90;;;;;;5031070;28;20446;-89
2023/12/23 09:50:21;;;;;;;0.40;0.40;;;2.80;99.90;;;;;;5030805;28;20496;-89
2023/12/23 09:52:53;;;;;;;0.40;0.40;;;2.80;99.90;;;;;;5031871;28;20185;-88
2023/12/23 09:55:19;;;;;;;0.30;0.30;;;2.90;99.90;;;;;;5010395;28;20200;-89
2023/12/23 09:57:44;;;;;;;0.50;0.50;;;2.90;99.90;;;;;;5028974;28;20430;-89
2023/12/23 10:00:11;;;;;;;0.37;0.37;;;2.90;99.90;;;;;;5030077;28;20948;-90
2023/12/23 10:02:37;;;;;;;0.30;0.30;;;2.90;99.90;;;;;;5029753;28;20180;-89
2023/12/23 10:05:03;;;;;;;0.40;0.40;;;3.00;99.90;;;;;;5007838;28;20446;-88
2023/12/23 10:07:28;;;;;;;0.37;0.37;;;3.00;99.90;;;;;;5030545;28;20212;-88
2023/12/23 10:09:54;;;;;;;0.30;0.30;;;3.00;99.90;;;;;;5030869;28;20179;-87
2023/12/23 10:12:20;;;;;;;0.30;0.30;;;3.00;99.90;;;;;;5030211;28;20184;-86
2023/12/23 10:14:48;;;;;;;0.40;0.40;;;3.00;99.90;;;;;;5027225;28;20262;-88
2023/12/23 10:17:14;;;;;;;0.40;0.40;;;3.00;99.90;;;;;;5013026;28;20431;-89
2023/12/23 10:19:39;;;;;;;0.33;0.33;;;3.10;99.90;;;;;;5030101;28;20439;-88
2023/12/23 10:22:06;;;;;;;0.40;0.40;;;3.10;99.90;;;;;;5027326;28;20425;-86
2023/12/23 10:24:32;;;;;;;0.37;0.37;;;3.10;99.90;;;;;;5019569;28;20215;-86
2023/12/23 10:26:59;;;;;;;0.30;0.30;;;3.20;99.90;;;;;;5025468;28;20949;-88
2023/12/23 10:29:26;;;;;;;0.30;0.30;;;3.20;99.90;;;;;;5015791;28;20284;-88
2023/12/23 10:31:58;;;;;;;0.30;0.30;;;3.30;99.90;;;;;;5028726;28;20449;-86
2023/12/23 10:34:25;;;;;;;0.40;0.40;;;3.50;99.90;;;;;;5019388;28;20430;-86
2023/12/23 10:36:53;;;;;;;0.30;0.30;;;3.50;99.90;;;;;;5022775;28;20514;-87
2023/12/23 10:39:27;;;;;;;0.30;0.30;;;3.50;99.90;;;;;;5021288;28;20442;-89
2023/12/23 10:41:57;;;;;;;0.30;0.30;;;3.50;99.90;;;;;;5007734;28;20434;-90
2023/12/23 10:44:25;;;;;;;0.30;0.30;;;3.60;99.90;;;;;;5021320;28;20475;-88
2023/12/23 10:46:51;;;;;;;0.30;0.30;;;3.60;99.90;;;;;;5029319;28;20432;-86
2023/12/23 10:49:18;;;;;;;0.30;0.30;;;3.60;99.90;;;;;;5033952;28;20475;-86
2023/12/23 10:51:45;;;;;;;0.30;0.30;;;3.70;99.90;;;;;;5037195;28;20730;-86
2023/12/23 10:54:12;;;;;;;0.40;0.40;;;3.80;99.90;;;;;;5033535;28;20462;-85
2023/12/23 10:56:39;;;;;;;0.30;0.30;;;3.80;99.90;;;;;;5013116;28;20438;-85
2023/12/23 10:59:07;;;;;;;0.30;0.30;;;3.90;99.90;;;;;;5027230;28;20446;-88
2023/12/23 11:01:33;;;;;;;0.30;0.30;;;3.90;99.90;;;;;;5029741;28;20785;-89
2023/12/23 11:04:00;;;;;;;0.23;0.23;;;3.90;99.90;;;;;;5033180;28;20499;-88
2023/12/23 11:06:28;;;;;;;0.30;0.30;;;4.00;99.90;;;;;;5034725;28;20434;-87
2023/12/23 11:08:55;;;;;;;0.30;0.30;;;3.90;99.90;;;;;;5035701;28;20432;-88
2023/12/23 11:11:22;;;;;;;0.30;0.30;;;3.90;99.90;;;;;;5048674;28;20432;-88
2023/12/23 11:13:47;;;;;;;0.30;0.30;;;3.80;99.90;;;;;;5036367;28;20442;-87
2023/12/23 11:16:17;;;;;;;0.40;0.40;;;3.80;99.90;;;;;;5028982;28;20421;-88
2023/12/23 11:18:42;;;;;;;0.30;0.30;;;3.80;99.90;;;;;;5040082;28;20195;-88
2023/12/23 11:21:16;;;;;;;0.30;0.30;;;3.70;99.90;;;;;;5015813;28;20999;-90
2023/12/23 11:23:42;;;;;;;0.30;0.30;;;3.70;99.90;;;;;;5028708;28;20219;-89
2023/12/23 11:26:40;;;;;;;0.30;0.30;;;3.70;99.90;;;;;;5049972;28;20485;-90
2023/12/23 11:29:14;;;;;;;0.27;0.27;;;3.70;99.90;;;;;;5032531;28;20180;-88
2023/12/23 11:31:40;;;;;;;0.30;0.30;;;3.70;99.90;;;;;;5014423;28;20426;-89
2023/12/23 11:34:17;;;;;;;0.30;0.30;;;3.70;99.90;;;;;;5018132;28;20490;-88
2023/12/23 11:36:43;;;;;;;0.40;0.40;;;3.70;99.90;;;;;;5018009;28;20445;-89
2023/12/23 11:39:13;;;;;;;0.30;0.30;;;3.70;99.90;;;;;;5020420;28;20918;-89
2023/12/23 11:41:43;;;;;;;0.30;0.30;;;3.70;99.90;;;;;;5028593;28;20891;-89
2023/12/23 11:44:11;;;;;;;0.40;0.40;;;3.70;99.90;;;;;;5041619;28;20488;-86
2023/12/23 11:46:40;;;;;;;0.37;0.37;;;3.80;99.90;;;;;;5026965;28;20422;-87
2023/12/23 11:49:10;;;;;;;0.30;0.30;;;3.80;99.90;;;;;;5030693;28;20927;-86
2023/12/23 11:51:38;;;;;;;0.40;0.40;;;3.80;99.90;;;;;;5010350;28;20832;-86
2023/12/23 11:54:04;;;;;;;0.30;0.30;;;3.70;99.90;;;;;;5024241;28;20496;-88
2023/12/23 11:56:29;;;;;;;0.30;0.30;;;3.70;99.90;;;;;;5028925;28;20425;-88
2023/12/23 11:58:55;;;;;;;0.30;0.30;;;3.70;99.90;;;;;;5028818;28;20202;-87
2023/12/23 12:01:22;;;;;;;0.20;0.20;;;3.70;99.90;;;;;;5023098;28;20192;-87
2023/12/23 12:03:48;;;;;;;0.30;0.30;;;3.70;99.90;;;;;;4992915;28;20223;-88
2023/12/23 12:06:13;;;;;;;0.30;0.30;;;3.70;99.90;;;;;;4999908;28;20479;-88
2023/12/23 12:08:39;;;;;;;0.30;0.30;;;3.70;99.90;;;;;;5029501;28;20234;-88
2023/12/23 12:11:06;;;;;;;0.30;0.30;;;3.70;99.90;;;;;;5010963;28;20195;-87
2023/12/23 12:13:36;;;;;;;0.40;0.40;;;3.70;99.90;;;;;;5000631;28;20426;-88
2023/12/23 12:16:02;;;;;;;0.30;0.30;;;3.80;99.90;;;;;;5025995;28;20436;-87
2023/12/23 12:18:27;;;;;;;0.40;0.40;;;3.80;99.90;;;;;;5029267;28;20422;-89
2023/12/23 12:20:53;;;;;;;0.30;0.30;;;3.80;99.90;;;;;;5026068;28;20463;-87
2023/12/23 12:23:19;;;;;;;0.30;0.30;;;3.80;99.90;;;;;;5014952;28;20227;-88
2023/12/23 12:25:49;;;;;;;0.30;0.30;;;3.80;99.90;;;;;;5026309;28;20801;-87
2023/12/23 12:28:15;;;;;;;0.30;0.30;;;3.80;99.90;;;;;;5023909;28;20464;-88
2023/12/23 12:30:44;;;;;;;0.40;0.40;;;3.80;99.90;;;;;;5017551;28;20431;-88
2023/12/23 12:33:09;;;;;;;0.30;0.30;;;3.80;99.90;;;;;;5027957;28;20492;-88
2023/12/23 12:35:36;;;;;;;0.30;0.30;;;3.90;99.90;;;;;;5041335;28;20423;-88
2023/12/23 12:38:02;;;;;;;0.30;0.30;;;3.80;99.90;;;;;;5025387;28;20155;-88
2023/12/23 12:40:32;;;;;;;0.40;0.40;;;3.80;99.90;;;;;;5021031;28;20945;-88
2023/12/23 12:43:05;;;;;;;0.30;0.30;;;3.80;99.90;;;;;;5024495;28;20480;-88
2023/12/23 12:45:35;;;;;;;0.30;0.30;;;3.80;99.90;;;;;;5037826;28;20430;-88
2023/12/23 12:48:05;;;;;;;0.30;0.30;;;3.90;99.90;;;;;;5032835;28;20411;-89
2023/12/23 12:50:30;;;;;;;0.40;0.40;;;3.90;99.90;;;;;;5014820;28;20446;-88
2023/12/23 12:53:01;;;;;;;0.40;0.40;;;3.90;99.90;;;;;;5013055;28;20430;-88